Ugnu Kuparuk, AK

6:37 PM AKDT op 28 juli 2015 (GMT -0800)
Kuparuk | | Change Station
CLOSE
Current Station
Luchthaven
Location: Kuparuk,
Geometrische hoogte: 66 ft
Nabije weerstations

Hoogte 66 ft 70.33 °N, 149.60 °W | Updated -428 second ago

Mostly Cloudy
Merendeels bewolkt
39 °F
Voelt als 33 °F
N
9
Wind Variabel Wind van NNW

Vandaag
Hoog -- | Laag -- °F
--% Kans op neerslag
Gisteren
Hoog -- | Laag -- °F
Precip. -- inches
2:37 AM 1:45 AM
Wassende maan, 93% visible
Druk 29.97 inches
Zicht 10.0 mijlen
Wolken Merendeels bewolkt 1000 ft
Merendeels bewolkt 2200 ft
Gevoelstemperatuur 33 °F
Dauwpunt 34 °F
Vochtigheid 81%
Neerslag 0.00 inches
Dikte sneeuw Niet beschikbaar.
UV 1 van de 12
Pollen Niet beschikbaar.
Luchtkwaliteit Niet beschikbaar.
Flu Activity Niet beschikbaar.
METAR PAKU 290245Z 33008KT 10SM R24/P6000FT BKN010 BKN022 04/01 A2997 RMK LAST

More Conditions Fewer Conditions

Druk 29.97 inches
Zicht 10.0 mijlen
Wolken Merendeels bewolkt 1000 ft
Merendeels bewolkt 2200 ft
Gevoelstemperatuur 33 °F
Dauwpunt 34 °F
Vochtigheid 81%
Neerslag 0.00 inches
Dikte sneeuw Niet beschikbaar.
UV 1 van de 12
Pollen Niet beschikbaar.
Luchtkwaliteit Niet beschikbaar.
Flu Activity Niet beschikbaar.
METAR PAKU 290245Z 33008KT 10SM R24/P6000FT BKN010 BKN022 04/01 A2997 RMK LAST

More Conditions Fewer Conditions

10-Day Weather Forecast

×

Almanac

Astronomie

Jul. 28, 2015 Opkomst Ondergang
Werkelijke tijd
Burgerlijke schemering
Nautische schemering
Astronomische schemering
Maan
Golflengte van het zichtbare licht
Daglengte
Tomorrow will be .
, % of the Moon is Illuminated

Extremen vandaag

State Highs State Lows

Community

WunderPhotos

Upload Photos

1,842,012 foto’s ge-upload!

WunderBlogs® & News

Nearby

Luchtkwaliteit

  Luchtkwaliteit LK-index Verontreinigende stof
Not available.

Dikte sneeuw

Station Depth Geometrische hoogte

Aardbevingen

Stad Distance Mag. Time & Date
Minimum magnitude displayed is 2.5.

Watertemperatuur langs de kust

Plaats Temperatuur

Stations

Nabije weerstations

Locatie station Temp. Gevoelstemperatuur Dauwpunt Vochtigheid Wind Precip. Hoogte Geactualiseerd Type